LJPZ

Portoroz Airport

Portoroz, Slovenia
TAF LJPZ 202000Z 2021/2106 12005KT 9999 FEW070 BKN100
Issued Valid From Valid To
Jan-20 @ 20:00 UTC
(an hour ago)
Jan-20 @ 21:00 UTC
(19 minutes ago)
Jan-21 @ 06:00 UTC
(in 9 hours)
Jan-20 @ 21:00 to Jan-21 @ 06:00
TAF LJPZ 202000Z 2021/2106 12005KT 9999 FEW070 BKN100
Wind Visibility Clouds
120° at 5 knots 10,000+ meters
  • Few at 7,000' AGL
  • Broken at 10,000' AGL
TAF LJPZ 202000Z 2021/2106 12005KT 9999 FEW070 BKN100
Issued Jan-20 @ 20:00 UTC
(an hour ago)
Valid From Jan-20 @ 21:00 UTC
(19 minutes ago)
Valid To Jan-21 @ 06:00 UTC
(in 9 hours)
Jan-20 @ 21:00 - Jan-21 @ 06:00
Wind Visibility
120° at 5 knots 10,000+ meters
Clouds
  • Few at 7,000' AGL
  • Broken at 10,000' AGL